createdAt,value
2023-05-17T00:00:46.341Z,7.42
2023-05-17T00:03:19.216Z,7.37
2023-05-17T00:05:48.613Z,7.32
2023-05-17T00:08:17.027Z,7.29
2023-05-17T00:10:45.309Z,7.27
2023-05-17T00:13:13.727Z,7.25
2023-05-17T00:15:42.067Z,7.22
2023-05-17T00:18:10.520Z,7.19
2023-05-17T00:20:38.971Z,7.16
2023-05-17T00:23:07.266Z,7.14
2023-05-17T00:25:35.550Z,7.12
2023-05-17T00:28:04.077Z,7.11
2023-05-17T00:30:32.316Z,7.12
2023-05-17T00:33:00.666Z,7.12
2023-05-17T00:35:29.362Z,7.10
2023-05-17T00:37:58.304Z,7.08
2023-05-17T00:40:26.583Z,7.06
2023-05-17T00:42:54.953Z,7.05
2023-05-17T00:45:23.677Z,7.00
2023-05-17T00:47:51.978Z,6.98
2023-05-17T00:50:20.938Z,6.98
2023-05-17T00:52:49.362Z,6.98
2023-05-17T00:55:20.025Z,6.97
2023-05-17T00:57:49.281Z,6.96
2023-05-17T01:00:17.598Z,6.94
2023-05-17T01:02:48.956Z,6.92
2023-05-17T01:05:17.611Z,6.88
2023-05-17T01:07:45.913Z,6.85
2023-05-17T01:10:14.226Z,6.84
2023-05-17T01:12:58.161Z,6.85
2023-05-17T01:15:29.992Z,6.86
2023-05-17T01:18:26.351Z,6.85
2023-05-17T01:20:59.983Z,6.83
2023-05-17T01:24:03.846Z,6.82
2023-05-17T01:26:46.477Z,6.77
2023-05-17T01:29:16.601Z,6.75
2023-05-17T01:31:45.210Z,6.75
2023-05-17T01:34:13.520Z,6.75
2023-05-17T01:36:43.440Z,6.75
2023-05-17T01:39:12.012Z,6.77
2023-05-17T01:41:46.065Z,6.75
2023-05-17T01:44:28.154Z,6.74
2023-05-17T01:47:22.348Z,6.72
2023-05-17T01:49:54.398Z,6.69
2023-05-17T01:52:32.241Z,6.67
2023-05-17T01:55:18.717Z,6.67
2023-05-17T01:57:51.673Z,6.65
2023-05-17T02:00:21.489Z,6.62
2023-05-17T02:02:49.780Z,6.60
2023-05-17T02:05:18.290Z,6.59
2023-05-17T02:07:46.663Z,6.56
2023-05-17T02:10:14.989Z,6.56
2023-05-17T02:12:43.654Z,6.56
2023-05-17T02:15:13.977Z,6.54
2023-05-17T02:17:42.399Z,6.54
2023-05-17T02:20:12.109Z,6.52
2023-05-17T02:22:40.942Z,6.50
2023-05-17T02:25:09.863Z,6.48
2023-05-17T02:27:38.302Z,6.46
2023-05-17T02:30:07.746Z,6.45
2023-05-17T02:32:36.213Z,6.46
2023-05-17T02:35:04.979Z,6.45
2023-05-17T02:37:33.304Z,6.44
2023-05-17T02:40:01.616Z,6.42
2023-05-17T02:42:29.917Z,6.41
2023-05-17T02:44:58.331Z,6.41
2023-05-17T02:47:26.667Z,6.41
2023-05-17T02:49:55.203Z,6.41
2023-05-17T02:52:23.570Z,6.40
2023-05-17T02:54:51.983Z,6.38
2023-05-17T02:57:20.255Z,6.36
2023-05-17T02:59:49.249Z,6.33
2023-05-17T03:02:17.641Z,6.31
2023-05-17T03:04:45.959Z,6.29
2023-05-17T03:07:14.433Z,6.29
2023-05-17T03:09:43.065Z,6.29
2023-05-17T03:12:11.646Z,6.30
2023-05-17T03:14:40.112Z,6.30
2023-05-17T03:17:08.417Z,6.28
2023-05-17T03:19:36.806Z,6.26
2023-05-17T03:22:05.264Z,6.25
2023-05-17T03:24:33.511Z,6.25
2023-05-17T03:27:01.786Z,6.27
2023-05-17T03:29:30.108Z,6.27
2023-05-17T03:31:58.458Z,6.25
2023-05-17T03:34:26.777Z,6.24
2023-05-17T03:36:55.139Z,6.22
2023-05-17T03:39:23.415Z,6.21
2023-05-17T03:41:51.696Z,6.21
2023-05-17T03:44:19.996Z,6.23
2023-05-17T03:46:48.318Z,6.24
2023-05-17T03:49:16.654Z,6.24
2023-05-17T03:51:45.628Z,6.25
2023-05-17T03:54:13.875Z,6.24
2023-05-17T03:56:47.244Z,6.25
2023-05-17T03:59:16.424Z,6.28
2023-05-17T04:01:45.761Z,6.31
2023-05-17T04:04:14.573Z,6.36
2023-05-17T04:06:42.906Z,6.41
2023-05-17T04:09:13.304Z,6.44
2023-05-17T04:11:42.901Z,6.47
2023-05-17T04:14:11.301Z,6.52
2023-05-17T04:16:40.050Z,6.56
2023-05-17T04:19:08.528Z,6.62
2023-05-17T04:21:36.966Z,6.69
2023-05-17T04:24:05.487Z,6.72
2023-05-17T04:26:34.079Z,6.76
2023-05-17T04:29:02.462Z,6.80
2023-05-17T04:31:32.342Z,6.87
2023-05-17T04:34:00.809Z,6.94
2023-05-17T04:36:30.376Z,7.00
2023-05-17T04:38:58.677Z,7.08
2023-05-17T04:41:26.937Z,7.12
2023-05-17T04:43:55.194Z,7.17
2023-05-17T04:46:23.500Z,7.20
2023-05-17T04:48:51.934Z,7.24
2023-05-17T04:51:20.388Z,7.28
2023-05-17T04:53:48.771Z,7.34
2023-05-17T04:56:17.050Z,7.40
2023-05-17T04:58:45.410Z,7.43
2023-05-17T05:01:13.834Z,7.44
2023-05-17T05:03:42.473Z,7.45
2023-05-17T05:06:11.691Z,7.47
2023-05-17T05:08:40.051Z,7.50
2023-05-17T05:11:08.350Z,7.53
2023-05-17T05:13:39.202Z,7.54
2023-05-17T05:16:08.242Z,7.55
2023-05-17T05:18:36.895Z,7.57
2023-05-17T05:21:05.387Z,7.59
2023-05-17T05:23:33.774Z,7.62
2023-05-17T05:26:02.113Z,7.68
2023-05-17T05:28:30.570Z,7.70
2023-05-17T05:31:00.607Z,7.75
2023-05-17T05:33:29.083Z,7.77
2023-05-17T05:35:57.683Z,7.79
2023-05-17T05:38:26.005Z,7.83
2023-05-17T05:40:54.323Z,7.90
2023-05-17T05:43:22.594Z,7.97
2023-05-17T05:45:50.989Z,8.06
2023-05-17T05:48:19.496Z,8.16
2023-05-17T05:50:48.118Z,8.25
2023-05-17T05:53:19.333Z,8.33
2023-05-17T05:55:48.210Z,8.43
2023-05-17T05:58:16.574Z,8.54
2023-05-17T06:00:44.935Z,8.62
2023-05-17T06:03:13.249Z,8.70
2023-05-17T06:05:41.900Z,8.79
2023-05-17T06:08:10.338Z,8.87
2023-05-17T06:10:38.624Z,8.97
2023-05-17T06:13:07.084Z,9.13
2023-05-17T06:15:36.354Z,9.27
2023-05-17T06:18:04.897Z,9.40
2023-05-17T06:20:33.497Z,9.51
2023-05-17T06:23:02.291Z,9.59
2023-05-17T06:25:30.875Z,9.69
2023-05-17T06:27:59.421Z,9.85
2023-05-17T06:30:28.152Z,9.96
2023-05-17T06:32:58.153Z,10.07
2023-05-17T06:35:26.680Z,10.17
2023-05-17T06:37:55.145Z,10.24
2023-05-17T06:40:26.234Z,10.30
2023-05-17T06:42:54.528Z,10.37
2023-05-17T06:45:22.995Z,10.46
2023-05-17T06:47:51.463Z,10.51
2023-05-17T06:50:20.003Z,10.55
2023-05-17T06:52:48.301Z,10.59
2023-05-17T06:55:16.761Z,10.61
2023-05-17T06:57:45.123Z,10.64
2023-05-17T07:00:14.649Z,10.63
2023-05-17T07:02:43.048Z,10.61
2023-05-17T07:05:12.917Z,10.60
2023-05-17T07:07:41.313Z,10.58
2023-05-17T07:10:09.922Z,10.56
2023-05-17T07:12:39.263Z,10.57
2023-05-17T07:15:08.220Z,10.61
2023-05-17T07:17:37.764Z,10.64
2023-05-17T07:20:07.282Z,10.62
2023-05-17T07:22:38.005Z,10.60
2023-05-17T07:25:09.849Z,10.58
2023-05-17T07:27:38.564Z,10.58
2023-05-17T07:30:07.845Z,10.61
2023-05-17T07:32:36.624Z,10.63
2023-05-17T07:35:05.109Z,10.69
2023-05-17T07:37:33.483Z,10.79
2023-05-17T07:40:02.018Z,10.94
2023-05-17T07:42:30.372Z,11.02
2023-05-17T07:44:58.673Z,11.07
2023-05-17T07:47:27.074Z,11.14
2023-05-17T07:49:55.570Z,11.24
2023-05-17T07:52:26.484Z,11.36
2023-05-17T07:54:54.798Z,11.44
2023-05-17T07:57:23.125Z,11.49
2023-05-17T07:59:51.460Z,11.43
2023-05-17T08:02:19.758Z,11.33
2023-05-17T08:04:48.678Z,11.14
2023-05-17T08:07:17.117Z,11.02
2023-05-17T08:09:46.123Z,10.94
2023-05-17T08:12:14.917Z,10.94
2023-05-17T08:14:49.556Z,10.97
2023-05-17T08:20:13.629Z,10.99
2023-05-17T08:22:41.988Z,11.00
2023-05-17T08:25:16.972Z,11.04
2023-05-17T08:27:54.793Z,11.10
2023-05-17T08:30:28.947Z,11.21
2023-05-17T08:37:10.405Z,11.32
2023-05-17T08:40:20.494Z,11.36
2023-05-17T08:42:54.961Z,11.39
2023-05-17T08:45:45.311Z,11.42
2023-05-17T08:49:00.378Z,11.47
2023-05-17T08:51:30.856Z,11.59
2023-05-17T08:54:14.553Z,11.68
2023-05-17T08:57:10.543Z,11.71
2023-05-17T09:00:43.142Z,11.72
2023-05-17T09:03:17.971Z,11.76
2023-05-17T09:05:50.618Z,11.78
2023-05-17T09:08:24.515Z,11.78
2023-05-17T09:10:53.372Z,11.66
2023-05-17T09:13:21.964Z,11.57
2023-05-17T09:15:50.281Z,11.53
2023-05-17T09:18:34.290Z,11.53
2023-05-17T09:21:04.975Z,11.46
2023-05-17T09:23:37.184Z,11.35
2023-05-17T09:26:08.692Z,11.31
2023-05-17T09:28:42.412Z,11.40
2023-05-17T09:31:17.169Z,11.48
2023-05-17T09:33:50.597Z,11.53
2023-05-17T09:36:22.950Z,11.51
2023-05-17T09:38:58.920Z,11.44
2023-05-17T09:41:48.950Z,11.39
2023-05-17T09:44:17.191Z,11.38
2023-05-17T09:46:48.207Z,11.34
2023-05-17T09:49:18.146Z,11.33
2023-05-17T09:51:48.002Z,11.42
2023-05-17T09:54:17.944Z,11.49
2023-05-17T09:56:53.967Z,11.58
2023-05-17T09:59:24.429Z,11.74
2023-05-17T10:01:54.651Z,11.88
2023-05-17T10:04:28.905Z,11.99
2023-05-17T10:07:00.604Z,12.10
2023-05-17T10:09:34.806Z,12.20
2023-05-17T10:12:06.147Z,12.29
2023-05-17T10:14:37.295Z,12.37
2023-05-17T10:17:06.886Z,12.50
2023-05-17T10:19:36.290Z,12.52
2023-05-17T10:22:21.693Z,12.50
2023-05-17T10:24:52.283Z,12.26
2023-05-17T10:27:21.787Z,12.01
2023-05-17T10:29:50.920Z,11.89
2023-05-17T10:32:23.628Z,11.83
2023-05-17T10:35:10.630Z,11.71
2023-05-17T10:37:43.962Z,11.54
2023-05-17T10:40:17.938Z,11.50
2023-05-17T10:42:55.680Z,11.64
2023-05-17T10:45:28.194Z,11.73
2023-05-17T10:47:58.916Z,11.76
2023-05-17T10:50:29.172Z,11.82
2023-05-17T10:52:59.202Z,11.78
2023-05-17T10:55:47.689Z,11.82
2023-05-17T10:58:20.516Z,11.92
2023-05-17T11:00:53.162Z,12.05
2023-05-17T11:03:28.984Z,12.10
2023-05-17T11:06:25.356Z,12.16
2023-05-17T11:09:08.477Z,12.27
2023-05-17T11:11:37.007Z,12.37
2023-05-17T11:14:06.298Z,12.38
2023-05-17T11:16:36.988Z,12.38
2023-05-17T11:19:11.612Z,12.41
2023-05-17T11:21:58.582Z,12.42
2023-05-17T11:24:27.809Z,12.45
2023-05-17T11:27:00.422Z,12.52
2023-05-17T11:29:31.307Z,12.59
2023-05-17T11:32:00.390Z,12.54
2023-05-17T11:34:28.965Z,12.36
2023-05-17T11:36:57.624Z,12.29
2023-05-17T11:39:27.153Z,12.30
2023-05-17T11:41:56.767Z,12.32
2023-05-17T11:44:31.392Z,12.41
2023-05-17T11:47:11.615Z,12.47
2023-05-17T11:49:40.888Z,12.50
2023-05-17T11:52:09.333Z,12.46
2023-05-17T11:54:40.973Z,12.40
2023-05-17T11:57:09.906Z,12.44
2023-05-17T11:59:43.199Z,12.49
2023-05-17T12:02:29.640Z,12.60
2023-05-17T12:05:01.759Z,12.66
2023-05-17T12:07:30.763Z,12.64
2023-05-17T12:09:59.296Z,12.62
2023-05-17T12:12:27.813Z,12.65
2023-05-17T12:14:58.865Z,12.64
2023-05-17T12:17:37.713Z,12.68
2023-05-17T12:20:10.628Z,12.64
2023-05-17T12:22:56.410Z,12.73
2023-05-17T12:25:27.805Z,12.89
2023-05-17T12:28:23.050Z,12.86
2023-05-17T12:30:58.438Z,12.76
2023-05-17T12:33:28.871Z,12.88
2023-05-17T12:35:58.940Z,13.00
2023-05-17T12:38:32.486Z,12.92
2023-05-17T12:41:02.968Z,12.95
2023-05-17T12:43:35.164Z,13.04
2023-05-17T12:46:14.867Z,13.16
2023-05-17T12:48:44.109Z,13.11
2023-05-17T12:51:17.270Z,12.88
2023-05-17T12:53:49.702Z,12.80
2023-05-17T12:56:24.201Z,12.69
2023-05-17T12:59:14.334Z,12.55
2023-05-17T13:01:47.938Z,12.44
2023-05-17T13:04:18.641Z,12.42
2023-05-17T13:06:48.699Z,12.52
2023-05-17T13:09:18.847Z,12.66
2023-05-17T13:12:02.738Z,12.79
2023-05-17T13:14:46.763Z,12.80
2023-05-17T13:17:15.586Z,12.78
2023-05-17T13:19:44.064Z,12.73
2023-05-17T13:22:12.556Z,12.77
2023-05-17T13:24:41.103Z,12.92
2023-05-17T13:27:10.176Z,13.09
2023-05-17T13:29:41.900Z,13.20
2023-05-17T13:32:14.445Z,13.15
2023-05-17T13:34:42.776Z,13.12
2023-05-17T13:37:12.650Z,13.12
2023-05-17T13:39:41.972Z,13.07
2023-05-17T13:42:12.723Z,13.03
2023-05-17T13:44:41.173Z,12.95
2023-05-17T13:47:09.472Z,12.83
2023-05-17T13:49:38.016Z,12.73
2023-05-17T13:52:10.370Z,12.59
2023-05-17T13:54:39.297Z,12.57
2023-05-17T13:57:08.317Z,12.64
2023-05-17T13:59:45.766Z,12.71
2023-05-17T14:02:14.552Z,12.72
2023-05-17T14:04:43.320Z,12.75
2023-05-17T14:07:11.658Z,12.74
2023-05-17T14:09:40.088Z,12.60
2023-05-17T14:12:08.443Z,12.54
2023-05-17T14:14:36.700Z,12.54
2023-05-17T14:17:05.043Z,12.54
2023-05-17T14:19:33.447Z,12.51
2023-05-17T14:22:02.057Z,12.42
2023-05-17T14:24:30.313Z,12.34
2023-05-17T14:26:58.791Z,12.30
2023-05-17T14:29:27.214Z,12.36
2023-05-17T14:31:55.711Z,12.48
2023-05-17T14:34:24.376Z,12.59
2023-05-17T14:36:53.274Z,12.74
2023-05-17T14:39:21.567Z,12.83
2023-05-17T14:41:50.029Z,12.94
2023-05-17T14:44:18.453Z,12.93
2023-05-17T14:46:46.880Z,12.84
2023-05-17T14:49:15.264Z,12.75
2023-05-17T14:51:45.160Z,12.71
2023-05-17T14:54:13.868Z,12.56
2023-05-17T14:56:42.500Z,12.50
2023-05-17T14:59:10.894Z,12.55
2023-05-17T15:01:39.207Z,12.54
2023-05-17T15:04:07.690Z,12.46
2023-05-17T15:06:36.434Z,12.40
2023-05-17T15:09:04.985Z,12.37
2023-05-17T15:11:33.985Z,12.39
2023-05-17T15:14:02.611Z,12.39
2023-05-17T15:16:30.919Z,12.31
2023-05-17T15:18:59.921Z,12.16
2023-05-17T15:21:28.418Z,12.08
2023-05-17T15:23:56.630Z,12.08
2023-05-17T15:26:24.915Z,12.08
2023-05-17T15:28:53.391Z,12.05
2023-05-17T15:31:24.111Z,12.01
2023-05-17T15:33:52.549Z,12.01
2023-05-17T15:36:20.954Z,11.94
2023-05-17T15:38:49.323Z,11.89
2023-05-17T15:41:21.873Z,11.76
2023-05-17T15:43:50.120Z,11.62
2023-05-17T15:46:18.511Z,11.46
2023-05-17T15:51:35.779Z,11.29
2023-05-17T15:54:04.259Z,11.23
2023-05-17T15:56:32.650Z,11.21
2023-05-17T15:59:02.686Z,11.14
2023-05-17T16:01:31.708Z,11.04
2023-05-17T16:04:00.128Z,10.96
2023-05-17T16:06:34.922Z,10.90
2023-05-17T16:09:03.650Z,10.87
2023-05-17T16:11:34.313Z,10.86
2023-05-17T16:14:03.704Z,10.85
2023-05-17T16:16:32.429Z,10.78
2023-05-17T16:19:03.120Z,10.72
2023-05-17T16:21:32.744Z,10.69
2023-05-17T16:24:01.613Z,10.67
2023-05-17T16:26:30.392Z,10.70
2023-05-17T16:28:58.965Z,10.68
2023-05-17T16:31:27.480Z,10.66
2023-05-17T16:33:55.920Z,10.65
2023-05-17T16:36:25.428Z,10.68
2023-05-17T16:38:53.609Z,10.67
2023-05-17T16:41:22.085Z,10.63
2023-05-17T16:43:50.317Z,10.56
2023-05-17T16:46:22.266Z,10.52
2023-05-17T16:48:52.919Z,10.50
2023-05-17T16:51:21.799Z,10.47
2023-05-17T16:53:52.089Z,10.40
2023-05-17T16:56:22.893Z,10.32
2023-05-17T16:58:52.567Z,10.28
2023-05-17T17:01:21.493Z,10.27
2023-05-17T17:03:49.861Z,10.20
2023-05-17T17:06:18.273Z,10.17
2023-05-17T17:08:46.835Z,10.13
2023-05-17T17:11:22.883Z,10.08
2023-05-17T17:13:54.130Z,10.05
2023-05-17T17:16:23.786Z,10.05
2023-05-17T17:18:52.871Z,10.02
2023-05-17T17:21:28.315Z,9.99
2023-05-17T17:23:57.543Z,10.01
2023-05-17T17:26:41.844Z,10.01
2023-05-17T17:29:10.697Z,10.02
2023-05-17T17:31:38.961Z,10.01
2023-05-17T17:34:07.573Z,10.02
2023-05-17T17:36:36.909Z,10.03
2023-05-17T17:39:06.945Z,10.01
2023-05-17T17:41:35.172Z,9.97
2023-05-17T17:44:03.438Z,9.92
2023-05-17T17:46:31.646Z,9.88
2023-05-17T17:48:59.893Z,9.83
2023-05-17T17:51:28.134Z,9.79
2023-05-17T17:53:56.396Z,9.71
2023-05-17T17:56:26.255Z,9.69
2023-05-17T17:58:56.344Z,9.69
2023-05-17T18:01:25.737Z,9.67
2023-05-17T18:03:54.189Z,9.69
2023-05-17T18:06:23.640Z,9.69
2023-05-17T18:08:52.040Z,9.68
2023-05-17T18:11:20.252Z,9.65
2023-05-17T18:13:48.826Z,9.62
2023-05-17T18:16:17.168Z,9.61
2023-05-17T18:18:45.450Z,9.58
2023-05-17T18:21:14.009Z,9.50
2023-05-17T18:23:42.403Z,9.45
2023-05-17T18:26:10.633Z,9.44
2023-05-17T18:28:42.360Z,9.41
2023-05-17T18:31:11.689Z,9.38
2023-05-17T18:33:39.991Z,9.36
2023-05-17T18:36:08.314Z,9.34
2023-05-17T18:38:36.534Z,9.30
2023-05-17T18:41:04.904Z,9.27
2023-05-17T18:43:33.290Z,9.22
2023-05-17T18:46:01.588Z,9.17
2023-05-17T18:48:29.911Z,9.12
2023-05-17T18:51:00.118Z,9.10
2023-05-17T18:53:29.465Z,9.08
2023-05-17T18:56:02.216Z,9.07
2023-05-17T18:58:30.981Z,9.06
2023-05-17T19:01:00.353Z,9.05
2023-05-17T19:03:28.754Z,9.04
2023-05-17T19:05:57.099Z,9.04
2023-05-17T19:08:25.291Z,9.02
2023-05-17T19:10:53.517Z,9.00
2023-05-17T19:13:21.841Z,8.99
2023-05-17T19:15:50.034Z,8.98
2023-05-17T19:18:18.274Z,8.96
2023-05-17T19:20:46.768Z,8.94
2023-05-17T19:23:15.026Z,8.92
2023-05-17T19:25:43.372Z,8.89
2023-05-17T19:28:11.713Z,8.84
2023-05-17T19:30:39.944Z,8.80
2023-05-17T19:33:08.203Z,8.76
2023-05-17T19:35:39.608Z,8.70
2023-05-17T19:38:08.914Z,8.63
2023-05-17T19:40:38.583Z,8.56
2023-05-17T19:43:07.683Z,8.51
2023-05-17T19:45:36.059Z,8.45
2023-05-17T19:48:07.521Z,8.38
2023-05-17T19:50:36.960Z,8.33
2023-05-17T19:53:05.227Z,8.26
2023-05-17T19:55:34.704Z,8.18
2023-05-17T19:58:03.555Z,8.10
2023-05-17T20:00:33.116Z,8.04
2023-05-17T20:03:02.812Z,8.00
2023-05-17T20:05:31.654Z,7.98
2023-05-17T20:08:02.758Z,7.95
2023-05-17T20:10:31.770Z,7.91
2023-05-17T20:13:00.176Z,7.85
2023-05-17T20:19:11.252Z,7.76
2023-05-17T20:21:41.237Z,7.73
2023-05-17T20:28:51.227Z,7.60
2023-05-17T20:32:19.908Z,7.49
2023-05-17T20:35:14.325Z,7.51
2023-05-17T20:38:08.843Z,7.42
2023-05-17T20:41:56.863Z,7.41
2023-05-17T20:44:50.621Z,7.30
2023-05-17T20:47:30.138Z,7.36
2023-05-17T20:50:18.975Z,7.35
2023-05-17T21:40:02.673Z,6.61
2023-05-17T21:42:48.508Z,6.55
2023-05-17T21:52:00.041Z,6.49
2023-05-17T21:54:50.516Z,6.37
2023-05-17T21:58:48.254Z,6.37
2023-05-17T22:01:15.500Z,6.31
2023-05-17T22:07:19.675Z,6.31
2023-05-17T22:10:01.850Z,6.23
2023-05-17T22:12:36.162Z,6.22
2023-05-17T22:15:22.648Z,6.18
2023-05-17T22:17:53.321Z,6.14
2023-05-17T22:20:31.291Z,6.06
2023-05-17T22:23:09.836Z,6.09
2023-05-17T22:25:41.720Z,6.09
2023-05-17T22:28:24.305Z,6.06
2023-05-17T22:31:03.504Z,6.04
2023-05-17T22:33:32.629Z,6.01
2023-05-17T22:36:29.054Z,5.99
2023-05-17T22:39:05.497Z,5.94
2023-05-17T22:41:37.989Z,5.89
2023-05-17T22:44:11.759Z,5.85
2023-05-17T22:46:45.017Z,5.81
2023-05-17T22:49:17.198Z,5.78
2023-05-17T22:51:56.742Z,5.69
2023-05-17T22:54:27.021Z,5.75
2023-05-17T22:57:42.021Z,5.74
2023-05-17T23:05:28.636Z,5.64
2023-05-17T23:08:44.065Z,5.57
2023-05-17T23:11:20.322Z,5.54
2023-05-17T23:13:48.790Z,5.51
2023-05-17T23:16:17.128Z,5.47
2023-05-17T23:18:47.038Z,5.47
2023-05-17T23:21:15.544Z,5.44
2023-05-17T23:23:44.281Z,5.42
2023-05-17T23:26:15.254Z,5.40
2023-05-17T23:28:53.797Z,5.39
2023-05-17T23:31:26.022Z,5.36
2023-05-17T23:33:54.674Z,5.31
2023-05-17T23:36:23.042Z,5.27
2023-05-17T23:38:54.108Z,5.22
2023-05-17T23:41:34.036Z,5.17
2023-05-17T23:44:04.334Z,5.13
2023-05-17T23:46:41.033Z,5.11
2023-05-17T23:49:29.588Z,5.10
2023-05-17T23:52:02.204Z,5.09
2023-05-17T23:54:30.923Z,5.07
2023-05-17T23:56:59.254Z,5.06
2023-05-17T23:59:32.799Z,5.05
